Time;durP1;ratioP1;P1;durP2;ratioP2;P2;SDS_P1;SDS_P2;PMS_P1;PMS_P2;Temp;Humidity;BMP_temperature;BMP_pressure;BME280_temperature;BME280_humidity;BME280_pressure;Samples;Min_cycle;Max_cycle;Signal;HPM_P1;HPM_P2
2023/10/03 00:00:49;;;;;;;23.57;12.40;;;21.80;99.90;;;;;;5084317;28;20182;-87
2023/10/03 00:03:15;;;;;;;22.10;11.47;;;21.80;99.90;;;;;;5081234;28;20171;-87
2023/10/03 00:05:44;;;;;;;20.17;11.07;;;21.80;99.90;;;;;;5082163;28;20201;-85
2023/10/03 00:08:10;;;;;;;21.03;12.53;;;21.80;99.90;;;;;;5082512;28;20168;-87
2023/10/03 00:10:38;;;;;;;19.90;11.13;;;21.70;99.90;;;;;;5079507;28;20164;-86
2023/10/03 00:13:08;;;;;;;21.07;11.10;;;21.70;99.90;;;;;;5083882;28;20453;-85
2023/10/03 00:15:35;;;;;;;22.20;11.53;;;21.70;99.90;;;;;;5076788;28;20172;-86
2023/10/03 00:18:01;;;;;;;23.80;11.00;;;21.70;99.90;;;;;;5094731;28;20438;-86
2023/10/03 00:20:29;;;;;;;22.13;11.80;;;21.80;99.90;;;;;;5094007;28;20186;-86
2023/10/03 00:22:58;;;;;;;22.43;11.77;;;21.80;99.90;;;;;;5083470;28;20300;-85
2023/10/03 00:25:26;;;;;;;22.87;11.97;;;21.70;99.90;;;;;;5094835;28;20291;-86
2023/10/03 00:27:55;;;;;;;22.63;11.50;;;21.80;99.90;;;;;;5083575;28;20163;-85
2023/10/03 00:30:23;;;;;;;24.50;11.87;;;21.70;99.90;;;;;;5096466;28;20271;-85
2023/10/03 00:32:51;;;;;;;22.03;12.00;;;21.70;99.90;;;;;;5082634;28;20159;-87
2023/10/03 00:35:19;;;;;;;22.10;11.73;;;21.70;99.90;;;;;;5093892;28;20182;-87
2023/10/03 00:37:46;;;;;;;23.87;11.23;;;21.60;99.90;;;;;;5080516;28;20172;-86
2023/10/03 00:40:27;;;;;;;22.90;11.53;;;21.60;99.90;;;;;;5091485;28;20467;-86
2023/10/03 00:43:02;;;;;;;23.20;12.57;;;21.70;99.90;;;;;;5077351;28;20179;-86
2023/10/03 00:45:31;;;;;;;23.20;11.93;;;21.70;99.90;;;;;;5092718;28;20209;-85
2023/10/03 00:47:59;;;;;;;21.60;11.40;;;21.70;99.90;;;;;;5078709;28;20191;-86
2023/10/03 00:50:34;;;;;;;24.63;11.90;;;21.80;99.90;;;;;;5070688;28;20411;-86
2023/10/03 00:53:08;;;;;;;23.20;11.97;;;21.90;99.90;;;;;;5075681;28;20167;-85
2023/10/03 00:55:35;;;;;;;21.10;11.83;;;21.90;99.90;;;;;;5071364;28;20259;-86
2023/10/03 01:00:43;;;;;;;20.40;11.43;;;22.00;99.90;;;;;;5093772;28;20231;-86
2023/10/03 01:03:32;;;;;;;22.93;11.73;;;22.00;99.90;;;;;;5088925;28;20236;-86
2023/10/03 01:06:09;;;;;;;21.03;12.13;;;22.00;99.90;;;;;;5074210;28;20195;-85
2023/10/03 01:08:40;;;;;;;22.23;12.30;;;22.00;99.90;;;;;;5085492;28;20257;-86
2023/10/03 01:11:20;;;;;;;22.27;11.43;;;21.90;99.90;;;;;;5073613;28;20236;-86
2023/10/03 01:13:49;;;;;;;23.20;11.90;;;21.90;99.90;;;;;;5088605;28;20169;-86
2023/10/03 01:19:29;;;;;;;26.17;11.87;;;22.00;99.90;;;;;;5079576;28;20556;-86
2023/10/03 01:21:59;;;;;;;20.43;11.03;;;21.90;99.90;;;;;;5072832;28;20230;-86
2023/10/03 01:24:25;;;;;;;19.80;11.37;;;21.90;99.90;;;;;;5083206;28;20202;-86
2023/10/03 01:26:54;;;;;;;21.63;11.53;;;22.00;99.90;;;;;;5073709;28;20174;-86
2023/10/03 01:29:21;;;;;;;24.00;12.03;;;22.00;99.90;;;;;;5086463;28;20193;-86
2023/10/03 01:31:48;;;;;;;23.53;12.20;;;21.90;99.90;;;;;;5072630;28;20198;-85
2023/10/03 01:34:17;;;;;;;22.63;12.53;;;21.90;99.90;;;;;;5077884;28;20176;-86
2023/10/03 01:36:45;;;;;;;22.87;12.00;;;21.90;99.90;;;;;;5073327;28;20183;-86
2023/10/03 01:39:12;;;;;;;21.13;12.13;;;22.00;99.90;;;;;;5074374;28;20638;-87
2023/10/03 01:41:44;;;;;;;22.17;11.77;;;22.00;99.90;;;;;;5088951;28;20545;-85
2023/10/03 01:44:16;;;;;;;24.20;12.27;;;22.00;99.90;;;;;;5086315;28;20611;-86
2023/10/03 01:46:44;;;;;;;21.13;11.20;;;22.00;99.90;;;;;;5087266;28;20273;-85
2023/10/03 01:49:14;;;;;;;20.30;12.27;;;21.80;99.90;;;;;;5088088;28;20168;-86
2023/10/03 01:51:40;;;;;;;22.47;11.67;;;21.90;99.90;;;;;;5086541;28;20171;-86
2023/10/03 01:54:09;;;;;;;19.60;11.20;;;21.90;99.90;;;;;;5089344;28;20258;-85
2023/10/03 01:56:35;;;;;;;22.73;12.10;;;21.80;99.90;;;;;;5085361;28;20247;-86
2023/10/03 01:59:01;;;;;;;22.63;12.10;;;21.80;99.90;;;;;;5086961;28;20167;-86
2023/10/03 02:01:39;;;;;;;21.20;11.23;;;21.80;99.90;;;;;;5086737;28;20242;-85
2023/10/03 02:04:06;;;;;;;23.70;12.17;;;21.80;99.90;;;;;;5076463;28;20279;-85
2023/10/03 02:06:31;;;;;;;19.57;11.03;;;21.80;99.90;;;;;;5085559;28;20176;-85
2023/10/03 02:09:03;;;;;;;22.10;11.50;;;21.70;99.90;;;;;;5074547;28;20481;-85
2023/10/03 02:11:29;;;;;;;21.80;11.70;;;21.80;99.90;;;;;;5091400;28;20186;-85
2023/10/03 02:13:55;;;;;;;21.93;11.90;;;21.70;99.90;;;;;;5095575;28;20163;-85
2023/10/03 02:16:22;;;;;;;22.77;11.60;;;21.70;99.90;;;;;;5081345;28;20175;-84
2023/10/03 02:18:49;;;;;;;23.70;11.90;;;21.70;99.90;;;;;;5094431;28;20167;-85
2023/10/03 02:21:21;;;;;;;20.57;11.77;;;21.70;99.90;;;;;;5081004;28;20215;-85
2023/10/03 02:23:50;;;;;;;23.17;13.33;;;21.60;99.90;;;;;;5094608;28;20171;-86
2023/10/03 02:26:16;;;;;;;27.33;13.60;;;21.60;99.90;;;;;;5081914;28;20179;-85
2023/10/03 02:28:42;;;;;;;23.90;13.37;;;21.60;99.90;;;;;;5095232;28;20501;-86
2023/10/03 02:31:11;;;;;;;23.63;13.03;;;21.60;99.90;;;;;;5082801;28;20176;-85
2023/10/03 02:33:44;;;;;;;21.67;12.63;;;21.70;99.90;;;;;;5074903;28;20172;-85
2023/10/03 02:36:10;;;;;;;26.67;13.23;;;21.70;99.90;;;;;;5082462;28;20326;-85
2023/10/03 02:38:37;;;;;;;22.87;12.23;;;21.70;99.90;;;;;;5074679;28;20175;-85
2023/10/03 02:41:06;;;;;;;22.27;11.07;;;21.70;99.90;;;;;;5076569;28;20180;-85
2023/10/03 02:43:38;;;;;;;21.40;11.47;;;21.70;99.90;;;;;;5087804;28;20163;-85
2023/10/03 02:46:05;;;;;;;21.73;11.67;;;21.70;99.90;;;;;;5087638;28;20222;-85
2023/10/03 02:48:36;;;;;;;22.40;11.87;;;21.70;99.90;;;;;;5084657;28;20429;-85
2023/10/03 02:51:06;;;;;;;21.67;11.70;;;21.70;99.90;;;;;;5088639;28;20232;-86
2023/10/03 02:53:35;;;;;;;20.17;11.00;;;21.70;99.90;;;;;;5085154;28;20164;-86
2023/10/03 02:56:07;;;;;;;23.97;11.63;;;21.70;99.90;;;;;;5090156;28;20175;-86
2023/10/03 02:58:36;;;;;;;20.07;11.43;;;21.70;99.90;;;;;;5078357;28;20179;-85
2023/10/03 03:01:05;;;;;;;20.77;11.30;;;21.70;99.90;;;;;;5074221;28;20168;-85
2023/10/03 03:03:34;;;;;;;21.23;11.33;;;21.70;99.90;;;;;;5093562;28;20181;-85
2023/10/03 03:06:02;;;;;;;20.87;11.30;;;21.80;99.90;;;;;;5091469;28;20198;-86
2023/10/03 03:08:29;;;;;;;20.53;11.30;;;21.80;99.90;;;;;;5080537;28;20175;-87
2023/10/03 03:10:57;;;;;;;20.33;10.37;;;21.70;99.90;;;;;;5090011;28;20186;-87
2023/10/03 03:13:29;;;;;;;19.93;10.97;;;21.70;99.90;;;;;;5084175;28;20172;-86
2023/10/03 03:16:03;;;;;;;21.87;11.07;;;21.70;99.90;;;;;;5072876;28;20190;-86
2023/10/03 03:18:42;;;;;;;23.33;11.10;;;21.70;99.90;;;;;;5080179;28;20163;-85
2023/10/03 03:21:20;;;;;;;21.03;10.87;;;21.70;99.90;;;;;;5093434;28;20184;-85
2023/10/03 03:23:56;;;;;;;22.33;11.50;;;21.80;99.90;;;;;;5079995;28;20171;-85
2023/10/03 03:26:35;;;;;;;19.20;10.77;;;21.80;99.90;;;;;;5092221;28;20174;-85
2023/10/03 03:29:20;;;;;;;20.30;10.73;;;21.80;99.90;;;;;;5086205;28;20591;-85
2023/10/03 03:31:49;;;;;;;19.67;10.30;;;21.80;99.90;;;;;;5073730;28;20229;-85
2023/10/03 03:34:18;;;;;;;19.77;10.33;;;21.80;99.90;;;;;;5083464;28;20272;-85
2023/10/03 03:36:46;;;;;;;19.67;10.90;;;21.80;99.90;;;;;;5071541;28;20175;-85
2023/10/03 03:39:16;;;;;;;21.20;11.40;;;21.80;99.90;;;;;;5083414;28;20575;-85
2023/10/03 03:41:46;;;;;;;19.00;10.13;;;21.80;99.90;;;;;;5072318;28;20289;-85
2023/10/03 03:44:12;;;;;;;20.27;11.10;;;21.90;99.90;;;;;;5084424;28;20405;-85
2023/10/03 03:46:44;;;;;;;19.70;10.57;;;21.80;99.90;;;;;;5070282;28;20171;-85
2023/10/03 03:49:12;;;;;;;19.50;10.43;;;21.90;99.90;;;;;;5082589;28;20163;-85
2023/10/03 03:51:41;;;;;;;19.67;10.07;;;21.90;99.90;;;;;;5070598;28;20172;-86
2023/10/03 03:54:09;;;;;;;18.83;10.10;;;21.90;99.90;;;;;;5084210;28;20576;-86
2023/10/03 03:56:39;;;;;;;18.87;10.53;;;21.90;99.90;;;;;;5072338;28;20168;-85
2023/10/03 03:59:09;;;;;;;21.10;10.47;;;21.90;99.90;;;;;;5083827;28;20175;-85
2023/10/03 04:01:37;;;;;;;18.40;9.80;;;21.90;99.90;;;;;;5091706;28;20612;-85
2023/10/03 04:04:07;;;;;;;18.67;10.30;;;21.90;99.90;;;;;;5081292;28;20171;-85
2023/10/03 04:06:36;;;;;;;18.27;9.50;;;21.90;99.90;;;;;;5088434;28;20179;-85
2023/10/03 04:09:05;;;;;;;17.23;9.90;;;21.90;99.90;;;;;;5084106;28;20415;-85
2023/10/03 04:11:32;;;;;;;18.40;9.73;;;21.90;99.90;;;;;;5086841;28;20182;-85
2023/10/03 04:13:59;;;;;;;17.53;10.10;;;21.90;99.90;;;;;;5086807;28;20203;-86
2023/10/03 04:16:28;;;;;;;17.33;9.63;;;22.00;99.90;;;;;;5084619;28;20459;-85
2023/10/03 04:18:58;;;;;;;16.70;9.27;;;22.00;99.90;;;;;;5092056;28;20162;-85
2023/10/03 04:21:27;;;;;;;19.87;10.10;;;21.90;99.90;;;;;;5087376;28;20220;-86
2023/10/03 04:23:53;;;;;;;17.80;9.50;;;21.90;99.90;;;;;;5095321;28;20288;-86
2023/10/03 04:26:23;;;;;;;18.50;9.63;;;21.90;99.90;;;;;;5085370;28;20253;-86
2023/10/03 04:28:52;;;;;;;17.00;9.17;;;22.00;99.90;;;;;;5094858;28;20164;-85
2023/10/03 04:31:21;;;;;;;15.77;9.40;;;22.00;99.90;;;;;;5084876;28;20173;-86
2023/10/03 04:33:50;;;;;;;17.37;9.27;;;22.00;99.90;;;;;;5095149;28;20514;-86
2023/10/03 04:36:24;;;;;;;20.13;10.13;;;22.00;99.90;;;;;;5067887;28;20186;-86
2023/10/03 04:38:53;;;;;;;16.73;9.23;;;22.00;99.90;;;;;;5095355;28;20211;-86
2023/10/03 04:41:18;;;;;;;16.13;9.17;;;22.00;99.90;;;;;;5084756;28;20518;-86
2023/10/03 04:43:44;;;;;;;13.83;8.60;;;22.00;99.90;;;;;;5095786;28;20235;-86
2023/10/03 04:46:11;;;;;;;15.13;9.57;;;22.10;99.90;;;;;;5082867;28;20557;-85
2023/10/03 04:48:39;;;;;;;14.63;8.83;;;22.10;99.90;;;;;;5094496;28;20551;-86
2023/10/03 04:51:08;;;;;;;17.47;9.57;;;22.10;99.90;;;;;;5082109;28;20510;-86
2023/10/03 04:53:36;;;;;;;16.27;9.33;;;22.10;99.90;;;;;;5094629;28;20195;-85
2023/10/03 04:56:05;;;;;;;17.23;9.63;;;22.10;99.90;;;;;;5083175;28;20175;-85
2023/10/03 04:58:34;;;;;;;16.67;9.77;;;22.10;99.90;;;;;;5087296;28;20203;-86
2023/10/03 05:01:02;;;;;;;14.87;8.90;;;22.10;99.90;;;;;;5086506;28;20501;-87
2023/10/03 05:03:28;;;;;;;15.20;8.67;;;22.10;99.90;;;;;;5091896;28;20504;-87
2023/10/03 05:05:55;;;;;;;16.13;9.20;;;22.10;99.90;;;;;;5087316;28;20651;-84
2023/10/03 05:08:24;;;;;;;16.83;9.03;;;22.10;99.90;;;;;;5088570;28;20278;-84
2023/10/03 05:10:54;;;;;;;15.10;9.17;;;22.10;99.90;;;;;;5089714;28;20262;-84
2023/10/03 05:13:22;;;;;;;15.40;8.97;;;22.10;99.90;;;;;;5086483;28;20163;-85
2023/10/03 05:15:57;;;;;;;14.63;8.37;;;22.10;99.90;;;;;;5089452;28;20178;-84
2023/10/03 05:18:23;;;;;;;14.70;8.43;;;22.10;99.90;;;;;;5085445;28;20167;-85
2023/10/03 05:20:55;;;;;;;14.03;8.33;;;22.10;99.90;;;;;;5091029;28;20247;-85
2023/10/03 05:23:21;;;;;;;13.50;8.47;;;22.10;99.90;;;;;;5083893;28;20605;-86
2023/10/03 05:25:50;;;;;;;17.23;9.20;;;22.10;99.90;;;;;;5091892;28;20202;-85
2023/10/03 05:28:16;;;;;;;17.60;8.70;;;22.10;99.90;;;;;;5082584;28;20562;-85
2023/10/03 05:30:41;;;;;;;13.93;8.43;;;22.10;99.90;;;;;;5091328;28;20240;-86
2023/10/03 05:33:07;;;;;;;13.57;8.23;;;22.10;99.90;;;;;;5080625;28;20668;-85
2023/10/03 05:35:36;;;;;;;15.57;8.33;;;22.10;99.90;;;;;;5091418;28;20235;-85
2023/10/03 05:38:07;;;;;;;14.17;8.13;;;22.10;99.90;;;;;;5077301;28;20171;-85
2023/10/03 05:40:32;;;;;;;14.50;8.47;;;22.10;99.90;;;;;;5090743;28;20205;-85
2023/10/03 05:43:03;;;;;;;15.43;8.43;;;22.20;99.90;;;;;;5078170;28;20196;-85
2023/10/03 05:45:29;;;;;;;17.23;8.87;;;22.10;99.90;;;;;;5092222;28;20206;-86
2023/10/03 05:47:59;;;;;;;13.57;7.97;;;22.10;99.90;;;;;;5082938;28;20174;-85
2023/10/03 05:50:28;;;;;;;11.23;7.17;;;22.10;99.90;;;;;;5074584;28;20556;-85
2023/10/03 05:52:56;;;;;;;14.53;7.93;;;22.10;99.90;;;;;;5086175;28;20418;-85
2023/10/03 05:55:25;;;;;;;15.03;8.53;;;22.10;99.90;;;;;;5093533;28;20363;-85
2023/10/03 05:57:54;;;;;;;14.03;8.50;;;22.20;99.90;;;;;;5084449;28;20175;-85
2023/10/03 06:00:22;;;;;;;13.93;8.03;;;22.20;99.90;;;;;;5072586;28;20719;-85
2023/10/03 06:02:49;;;;;;;14.93;8.23;;;22.20;99.90;;;;;;5078629;28;20277;-85
2023/10/03 06:05:18;;;;;;;14.27;8.60;;;22.20;99.90;;;;;;5078099;28;20267;-85
2023/10/03 06:07:49;;;;;;;17.30;8.53;;;22.20;99.90;;;;;;5074288;28;20257;-85
2023/10/03 06:10:21;;;;;;;15.73;8.53;;;22.20;99.90;;;;;;5078977;28;20266;-85
2023/10/03 06:12:48;;;;;;;14.57;8.40;;;22.20;99.90;;;;;;5074248;28;20246;-85
2023/10/03 06:15:14;;;;;;;14.63;7.57;;;22.20;99.90;;;;;;5082816;28;20464;-85
2023/10/03 06:17:40;;;;;;;14.67;7.83;;;22.20;99.90;;;;;;5090149;28;20536;-85
2023/10/03 06:20:15;;;;;;;14.47;8.33;;;22.20;99.90;;;;;;5080521;28;20239;-85
2023/10/03 06:22:44;;;;;;;16.10;7.67;;;22.20;99.90;;;;;;5090212;28;20176;-85
2023/10/03 06:25:14;;;;;;;14.10;7.60;;;22.20;99.90;;;;;;5079484;28;20202;-85
2023/10/03 06:27:42;;;;;;;14.00;8.07;;;22.20;99.90;;;;;;5091484;28;20436;-86
2023/10/03 06:30:18;;;;;;;16.93;8.30;;;22.20;99.90;;;;;;5081139;28;20175;-85
2023/10/03 06:32:45;;;;;;;15.50;8.37;;;22.20;99.90;;;;;;5090245;28;20202;-85
2023/10/03 06:35:14;;;;;;;13.93;7.57;;;22.20;99.90;;;;;;5081316;28;20514;-84
2023/10/03 06:37:42;;;;;;;16.20;8.10;;;22.20;99.90;;;;;;5092036;28;20171;-85
2023/10/03 06:40:08;;;;;;;13.83;8.20;;;22.20;99.90;;;;;;5080416;28;20179;-86
2023/10/03 06:42:38;;;;;;;16.27;8.03;;;22.20;99.90;;;;;;5092795;28;20306;-85
2023/10/03 06:45:13;;;;;;;13.70;7.97;;;22.20;99.90;;;;;;5086413;28;20429;-85
2023/10/03 06:47:42;;;;;;;15.07;7.63;;;22.20;99.90;;;;;;5055263;28;20182;-86
2023/10/03 06:50:12;;;;;;;14.27;7.70;;;22.20;99.90;;;;;;5085001;28;20174;-85
2023/10/03 06:52:39;;;;;;;14.30;7.33;;;22.20;99.90;;;;;;5071588;28;20565;-85
2023/10/03 06:55:10;;;;;;;15.17;7.70;;;22.20;99.90;;;;;;5082516;28;20283;-85
2023/10/03 06:57:38;;;;;;;13.00;7.60;;;22.20;99.90;;;;;;5070813;28;20170;-85
2023/10/03 07:02:59;;;;;;;11.83;6.90;;;22.20;99.90;;;;;;5067360;28;20210;-85
2023/10/03 07:05:28;;;;;;;12.63;7.30;;;22.20;99.90;;;;;;5075277;28;20270;-86
2023/10/03 07:08:00;;;;;;;17.03;7.50;;;22.20;99.90;;;;;;5089645;28;20174;-86
2023/10/03 07:10:26;;;;;;;13.30;7.27;;;22.30;99.90;;;;;;5079079;28;20174;-86
2023/10/03 07:12:58;;;;;;;14.67;7.27;;;22.30;99.90;;;;;;5085853;28;20171;-86
2023/10/03 07:15:23;;;;;;;15.43;7.60;;;22.30;99.90;;;;;;5079892;28;20438;-86
2023/10/03 07:17:52;;;;;;;15.20;7.80;;;22.20;99.90;;;;;;5085319;28;20257;-86
2023/10/03 07:20:21;;;;;;;12.80;6.90;;;22.30;99.90;;;;;;5065903;28;20835;-87
2023/10/03 07:22:47;;;;;;;14.33;6.40;;;22.20;99.90;;;;;;5084735;28;20445;-86
2023/10/03 07:25:16;;;;;;;12.07;7.00;;;22.30;99.90;;;;;;5069184;28;20211;-86
2023/10/03 07:27:42;;;;;;;15.40;7.13;;;22.30;99.90;;;;;;5082108;28;20342;-86
2023/10/03 07:30:11;;;;;;;13.13;7.33;;;22.30;99.90;;;;;;5070906;28;20265;-86
2023/10/03 07:32:39;;;;;;;11.90;6.63;;;22.30;99.90;;;;;;5080143;28;20239;-86
2023/10/03 07:35:10;;;;;;;13.53;6.90;;;22.30;99.90;;;;;;5087235;28;20172;-86
2023/10/03 07:37:36;;;;;;;12.07;6.20;;;22.30;99.90;;;;;;5078025;28;20443;-86
2023/10/03 07:40:03;;;;;;;11.63;6.43;;;22.30;99.90;;;;;;5086718;28;20536;-86
2023/10/03 07:42:31;;;;;;;13.03;6.80;;;22.30;99.90;;;;;;5078250;28;20245;-86
2023/10/03 07:44:59;;;;;;;12.63;6.63;;;22.30;99.90;;;;;;5088817;28;20397;-86
2023/10/03 07:47:26;;;;;;;13.07;5.70;;;22.30;99.90;;;;;;5075839;28;20159;-86
2023/10/03 07:49:54;;;;;;;9.90;5.40;;;22.30;99.90;;;;;;5087789;28;20366;-85
2023/10/03 07:52:25;;;;;;;12.53;6.67;;;22.30;99.90;;;;;;5078469;28;20193;-86
2023/10/03 07:54:56;;;;;;;10.03;5.90;;;22.30;99.90;;;;;;5093814;28;20193;-87
2023/10/03 07:57:25;;;;;;;9.10;5.63;;;22.30;99.90;;;;;;5085714;27;20171;-86
2023/10/03 07:59:52;;;;;;;12.70;6.13;;;22.30;99.90;;;;;;5075886;28;20584;-85
2023/10/03 08:02:18;;;;;;;10.37;6.17;;;22.30;99.90;;;;;;5083055;28;20175;-86
2023/10/03 08:04:47;;;;;;;10.60;5.80;;;22.30;99.90;;;;;;5072804;28;20222;-86
2023/10/03 08:07:21;;;;;;;8.63;5.17;;;22.40;99.90;;;;;;5081757;28;20512;-86
2023/10/03 08:09:50;;;;;;;9.60;5.70;;;22.40;99.90;;;;;;5074227;28;20263;-86
2023/10/03 08:12:26;;;;;;;10.70;5.50;;;22.40;99.90;;;;;;5077250;28;20265;-86
2023/10/03 08:14:52;;;;;;;8.07;5.10;;;22.40;99.90;;;;;;5073378;28;20197;-86
2023/10/03 08:17:27;;;;;;;8.93;5.57;;;22.40;99.90;;;;;;5077380;28;20446;-86
2023/10/03 08:19:53;;;;;;;9.77;5.47;;;22.40;99.90;;;;;;5073069;28;20230;-86
2023/10/03 08:22:20;;;;;;;11.03;5.20;;;22.40;99.90;;;;;;5075793;28;20240;-86
2023/10/03 08:24:46;;;;;;;10.60;5.23;;;22.40;99.90;;;;;;5075659;28;20620;-86
2023/10/03 08:27:19;;;;;;;8.17;5.10;;;22.40;99.90;;;;;;5075444;28;20164;-86
2023/10/03 08:29:51;;;;;;;10.63;5.00;;;22.40;99.90;;;;;;5078452;28;20167;-86
2023/10/03 08:32:20;;;;;;;9.70;5.40;;;22.40;99.90;;;;;;5073278;28;20167;-86
2023/10/03 08:34:48;;;;;;;9.43;5.33;;;22.40;99.90;;;;;;5081822;28;20205;-86
2023/10/03 08:37:21;;;;;;;8.47;5.00;;;22.40;99.90;;;;;;5088367;28;20163;-86
2023/10/03 08:39:53;;;;;;;7.40;4.63;;;22.40;99.90;;;;;;5077338;28;20312;-86
2023/10/03 08:42:43;;;;;;;6.90;4.60;;;22.40;99.90;;;;;;5087585;28;20200;-85
2023/10/03 08:45:22;;;;;;;8.07;5.30;;;22.40;99.90;;;;;;5083496;28;20199;-85
2023/10/03 08:47:54;;;;;;;7.73;4.63;;;22.40;99.90;;;;;;5088374;28;20564;-86
2023/10/03 08:50:34;;;;;;;9.13;5.07;;;22.40;99.90;;;;;;5081751;28;20297;-86
2023/10/03 08:53:14;;;;;;;8.30;4.80;;;22.40;99.90;;;;;;5090012;28;20159;-86
2023/10/03 08:55:43;;;;;;;8.73;4.57;;;22.40;99.90;;;;;;5083580;28;20183;-85
2023/10/03 08:58:13;;;;;;;8.37;4.57;;;22.40;99.90;;;;;;5086496;28;20178;-87
2023/10/03 09:00:46;;;;;;;6.40;4.67;;;22.40;99.90;;;;;;5081580;28;20186;-85
2023/10/03 09:03:15;;;;;;;8.43;4.00;;;22.40;99.90;;;;;;5088616;28;20170;-86
2023/10/03 09:05:48;;;;;;;7.70;4.33;;;22.40;99.90;;;;;;5080520;28;20285;-86
2023/10/03 09:08:17;;;;;;;7.07;4.30;;;22.40;99.90;;;;;;5089446;28;20269;-86
2023/10/03 09:10:57;;;;;;;6.20;4.40;;;22.40;99.90;;;;;;5077616;28;20177;-86
2023/10/03 09:13:27;;;;;;;7.23;4.17;;;22.40;99.90;;;;;;5088669;28;20171;-85
2023/10/03 09:16:08;;;;;;;6.53;4.63;;;22.40;99.90;;;;;;5080108;28;20450;-86
2023/10/03 09:18:42;;;;;;;5.73;3.80;;;22.40;99.90;;;;;;5089329;28;20180;-86
2023/10/03 09:21:27;;;;;;;5.37;3.87;;;22.40;99.90;;;;;;5077411;28;20167;-86
2023/10/03 09:24:20;;;;;;;5.80;4.17;;;22.40;99.90;;;;;;5087009;28;20206;-86
2023/10/03 09:27:07;;;;;;;5.03;3.83;;;22.50;99.90;;;;;;5077449;28;20282;-86
2023/10/03 09:29:33;;;;;;;5.53;4.00;;;22.40;99.90;;;;;;5074288;28;20170;-86
2023/10/03 09:32:19;;;;;;;6.63;4.00;;;22.50;99.90;;;;;;5074882;28;20171;-86
2023/10/03 09:35:09;;;;;;;5.67;3.90;;;22.40;99.90;;;;;;5073250;28;20174;-86
2023/10/03 09:37:48;;;;;;;4.93;3.70;;;22.50;99.90;;;;;;5071870;28;20271;-86
2023/10/03 09:40:17;;;;;;;5.83;4.20;;;22.50;99.90;;;;;;5076686;28;20471;-86
2023/10/03 09:42:48;;;;;;;5.13;3.70;;;22.50;99.90;;;;;;5089650;28;20191;-86
2023/10/03 09:45:31;;;;;;;6.47;3.90;;;22.50;99.90;;;;;;5081115;28;20631;-86
2023/10/03 09:48:05;;;;;;;6.20;3.73;;;22.50;99.90;;;;;;5088220;28;20319;-88
2023/10/03 09:50:35;;;;;;;3.70;2.90;;;22.50;99.90;;;;;;5079963;28;20234;-87
2023/10/03 09:53:06;;;;;;;4.47;3.10;;;22.50;99.90;;;;;;5084068;28;20177;-86
2023/10/03 09:55:46;;;;;;;8.13;4.03;;;22.60;99.90;;;;;;5083987;28;20503;-86
2023/10/03 09:58:13;;;;;;;4.70;3.70;;;22.50;99.90;;;;;;5082179;28;20557;-86
2023/10/03 10:00:53;;;;;;;3.80;2.90;;;22.50;99.90;;;;;;5073348;28;20163;-86
2023/10/03 10:03:28;;;;;;;4.07;3.17;;;22.50;99.90;;;;;;5083223;28;20193;-86
2023/10/03 10:06:37;;;;;;;5.03;3.17;;;22.50;99.90;;;;;;5082604;28;20191;-86
2023/10/03 10:09:13;;;;;;;6.33;3.50;;;22.60;99.90;;;;;;5071110;28;20179;-87
2023/10/03 10:12:19;;;;;;;5.13;3.17;;;22.60;99.90;;;;;;5086031;28;20194;-87
2023/10/03 10:17:45;;;;;;;4.60;3.07;;;22.60;99.90;;;;;;5081563;28;20222;-86
2023/10/03 10:20:13;;;;;;;5.87;3.30;;;22.60;99.90;;;;;;5069697;28;20190;-87
2023/10/03 10:23:19;;;;;;;9.63;3.57;;;22.60;99.90;;;;;;5080871;28;20438;-86
2023/10/03 10:25:57;;;;;;;4.83;2.97;;;22.60;99.90;;;;;;5069984;28;20194;-87
2023/10/03 10:28:34;;;;;;;4.57;3.40;;;22.60;99.90;;;;;;5077292;28;20166;-87
2023/10/03 10:31:22;;;;;;;4.10;3.13;;;22.60;99.90;;;;;;5085322;28;20329;-86
2023/10/03 10:33:49;;;;;;;4.40;3.30;;;22.60;99.90;;;;;;5087396;28;20631;-86
2023/10/03 10:36:21;;;;;;;7.47;3.23;;;22.60;99.90;;;;;;5085989;28;20508;-85
2023/10/03 10:38:49;;;;;;;4.00;3.10;;;22.60;99.90;;;;;;5078150;28;20403;-86
2023/10/03 10:41:17;;;;;;;5.60;3.17;;;22.50;99.90;;;;;;5088006;28;20358;-86
2023/10/03 10:44:08;;;;;;;4.47;3.53;;;22.60;99.90;;;;;;5069373;28;20376;-86
2023/10/03 10:46:46;;;;;;;4.27;3.00;;;22.50;99.90;;;;;;5067905;28;20191;-89
2023/10/03 10:49:30;;;;;;;5.43;3.40;;;22.50;99.90;;;;;;5079300;28;20181;-89
2023/10/03 10:52:13;;;;;;;5.40;3.40;;;22.50;99.90;;;;;;5084009;28;20166;-89
2023/10/03 10:54:42;;;;;;;4.20;3.07;;;22.50;99.90;;;;;;5079485;28;20173;-89
2023/10/03 10:57:18;;;;;;;4.00;2.83;;;22.50;99.90;;;;;;5082550;28;20180;-89
2023/10/03 10:59:47;;;;;;;3.80;2.77;;;22.50;99.90;;;;;;5084511;28;20176;-88
2023/10/03 11:02:26;;;;;;;3.83;3.00;;;22.50;99.90;;;;;;5083094;28;20445;-88
2023/10/03 11:04:58;;;;;;;3.63;2.70;;;22.50;99.90;;;;;;5075482;28;20479;-89
2023/10/03 11:07:33;;;;;;;3.80;2.83;;;22.50;99.90;;;;;;5072246;28;20178;-90
2023/10/03 11:10:08;;;;;;;3.80;2.90;;;22.50;99.90;;;;;;5077911;28;20329;-88
2023/10/03 11:12:35;;;;;;;3.50;2.80;;;22.50;99.90;;;;;;5082835;28;20171;-88
2023/10/03 11:15:01;;;;;;;3.27;2.63;;;22.50;99.90;;;;;;5077109;28;20179;-89
2023/10/03 11:17:27;;;;;;;3.73;2.93;;;22.50;99.90;;;;;;5083286;28;20174;-89
2023/10/03 11:19:56;;;;;;;4.47;3.07;;;22.50;99.90;;;;;;5078814;28;20171;-89
2023/10/03 11:22:51;;;;;;;3.73;2.90;;;22.50;99.90;;;;;;5066985;28;20481;-88
2023/10/03 11:25:25;;;;;;;4.63;3.00;;;22.50;99.90;;;;;;5049255;28;20210;-88
2023/10/03 11:27:56;;;;;;;4.20;2.83;;;22.50;99.90;;;;;;5088241;28;21140;-88
2023/10/03 11:30:22;;;;;;;3.70;2.70;;;22.50;99.90;;;;;;5080517;28;20171;-89
2023/10/03 11:33:03;;;;;;;3.37;2.50;;;22.50;99.90;;;;;;5087879;28;20177;-88
2023/10/03 11:35:35;;;;;;;4.23;2.73;;;22.50;99.90;;;;;;5082648;28;20552;-89
2023/10/03 11:38:13;;;;;;;4.07;2.93;;;22.50;99.90;;;;;;5090258;28;20166;-89
2023/10/03 11:40:53;;;;;;;4.43;3.00;;;22.40;99.90;;;;;;5082061;28;20179;-89
2023/10/03 11:43:26;;;;;;;4.57;2.70;;;22.40;99.90;;;;;;5090958;28;20363;-89
2023/10/03 11:45:56;;;;;;;3.30;2.60;;;22.50;99.90;;;;;;5080795;28;20270;-89
2023/10/03 11:48:26;;;;;;;4.93;3.27;;;22.50;99.90;;;;;;5091433;28;20461;-89
2023/10/03 11:51:01;;;;;;;3.10;2.63;;;22.50;99.90;;;;;;5084872;28;20164;-89
2023/10/03 11:53:31;;;;;;;4.80;2.80;;;22.50;99.90;;;;;;5074902;28;20162;-89
2023/10/03 11:55:57;;;;;;;3.20;2.70;;;22.50;99.90;;;;;;5084648;28;20400;-90
2023/10/03 11:58:32;;;;;;;4.50;2.87;;;22.50;99.90;;;;;;5078273;28;20175;-89
2023/10/03 12:01:01;;;;;;;3.57;2.60;;;22.50;99.90;;;;;;5081545;28;20179;-90
2023/10/03 12:03:30;;;;;;;3.60;2.77;;;22.50;99.90;;;;;;5090449;28;20258;-90
2023/10/03 12:06:01;;;;;;;4.70;2.70;;;22.50;99.90;;;;;;5084982;28;20290;-90
2023/10/03 12:08:29;;;;;;;2.73;2.40;;;22.50;99.90;;;;;;5074005;28;20232;-90
2023/10/03 12:10:58;;;;;;;3.17;2.43;;;22.50;99.90;;;;;;5066601;28;20209;-90
2023/10/03 12:13:27;;;;;;;4.27;2.50;;;22.50;99.90;;;;;;5072117;28;20581;-90
2023/10/03 12:15:56;;;;;;;2.60;2.40;;;22.50;99.90;;;;;;5085857;28;20182;-90
2023/10/03 12:18:22;;;;;;;2.63;2.40;;;22.50;99.90;;;;;;5071813;28;20195;-90
2023/10/03 12:20:50;;;;;;;3.60;2.60;;;22.40;99.90;;;;;;5082057;28;20182;-89
2023/10/03 12:23:19;;;;;;;2.73;2.50;;;22.50;99.90;;;;;;5071363;28;20210;-90
2023/10/03 12:25:48;;;;;;;3.10;2.40;;;22.50;99.90;;;;;;5080764;28;20241;-89
2023/10/03 12:28:16;;;;;;;2.27;2.00;;;22.50;99.90;;;;;;5074285;28;20171;-90
2023/10/03 12:30:50;;;;;;;3.13;2.30;;;22.50;99.90;;;;;;5075619;28;20633;-90
2023/10/03 12:33:19;;;;;;;3.80;2.20;;;22.50;99.90;;;;;;5072035;28;20182;-90
2023/10/03 12:35:48;;;;;;;2.57;2.10;;;22.50;99.90;;;;;;5073115;28;20225;-90
2023/10/03 12:38:15;;;;;;;2.33;2.13;;;22.50;99.90;;;;;;5081522;28;20178;-89
2023/10/03 12:40:42;;;;;;;3.53;2.37;;;22.50;99.90;;;;;;5085961;28;20170;-90
2023/10/03 12:43:10;;;;;;;3.07;2.23;;;22.50;99.90;;;;;;5080553;28;20281;-90
2023/10/03 12:45:35;;;;;;;3.73;2.30;;;22.50;99.90;;;;;;5087751;28;20202;-90
2023/10/03 12:48:05;;;;;;;2.87;2.10;;;22.50;99.90;;;;;;5078585;28;20164;-90
2023/10/03 12:50:31;;;;;;;3.97;2.60;;;22.40;99.90;;;;;;5070854;28;20167;-89
2023/10/03 12:53:01;;;;;;;3.73;2.20;;;22.40;99.90;;;;;;5080434;28;20225;-89
2023/10/03 12:55:32;;;;;;;2.30;1.97;;;22.40;99.90;;;;;;5070751;28;20468;-89
2023/10/03 12:58:03;;;;;;;3.07;2.00;;;22.40;99.90;;;;;;5079935;28;20315;-89
2023/10/03 13:00:29;;;;;;;2.37;2.07;;;22.40;99.90;;;;;;5088780;28;20575;-89
2023/10/03 13:03:04;;;;;;;2.00;1.80;;;22.40;99.90;;;;;;5073814;28;20392;-89
2023/10/03 13:06:05;;;;;;;4.10;2.13;;;22.40;99.90;;;;;;5068737;28;20203;-89
2023/10/03 13:08:33;;;;;;;2.60;2.03;;;22.40;99.90;;;;;;5044410;28;20307;-89